Conifer, New York
Current Conditions -  °F | °C
As of 7:10 AM on Monday 20 Oct 2014 (Local Time) from KSLK Reporting Station
Overcast Overcast  
Wind Chill: 25°   Ceiling: 2400
Heat Index: 30°   Visibility: 10mi
Dew Point: 27°   Wind: 5mph
Humidity: 88%   Direction: 240°WSW
Pressure: 29.93"   Gusts: NA
Location:  44.162°N, 74.433°W
Report Text: KSLK 201110Z AUTO 24004KT 10SM BKN024 BKN029 OVC100 M01/M03 A2993 RMK AO2 T10111028
Loading
Personal Weather Stations






























Interactive Weather Map
Tropical Storm Tracking
New forecast layout! Learn more

10-Day Weather Forecast

Advertisements
Track Severe Weather on mobile